sensor_id;sensor_type;location;lat;lon;timestamp;temperature;humidity
54461;DHT22;69977;49.414;11.010;2024-03-25T00:00:39;5.40;99.90
54461;DHT22;69977;49.414;11.010;2024-03-25T00:03:05;5.40;99.90
54461;DHT22;69977;49.414;11.010;2024-03-25T00:05:31;5.40;99.90
54461;DHT22;69977;49.414;11.010;2024-03-25T00:07:58;5.40;99.90
54461;DHT22;69977;49.414;11.010;2024-03-25T00:10:24;5.40;99.90
54461;DHT22;69977;49.414;11.010;2024-03-25T00:12:50;5.40;99.90
54461;DHT22;69977;49.414;11.010;2024-03-25T00:15:20;5.40;99.90
54461;DHT22;69977;49.414;11.010;2024-03-25T00:17:47;5.50;99.90
54461;DHT22;69977;49.414;11.010;2024-03-25T00:20:13;5.50;99.90
54461;DHT22;69977;49.414;11.010;2024-03-25T00:22:41;5.50;99.90
54461;DHT22;69977;49.414;11.010;2024-03-25T00:25:07;5.60;99.90
54461;DHT22;69977;49.414;11.010;2024-03-25T00:27:34;5.60;99.90
54461;DHT22;69977;49.414;11.010;2024-03-25T00:30:00;5.60;99.90
54461;DHT22;69977;49.414;11.010;2024-03-25T00:32:26;5.60;99.90
54461;DHT22;69977;49.414;11.010;2024-03-25T00:34:51;5.60;99.90
54461;DHT22;69977;49.414;11.010;2024-03-25T00:37:17;5.60;99.90
54461;DHT22;69977;49.414;11.010;2024-03-25T00:39:44;5.60;99.90
54461;DHT22;69977;49.414;11.010;2024-03-25T00:42:11;5.60;99.90
54461;DHT22;69977;49.414;11.010;2024-03-25T00:44:37;5.60;99.90
54461;DHT22;69977;49.414;11.010;2024-03-25T00:47:03;5.60;99.90
54461;DHT22;69977;49.414;11.010;2024-03-25T00:49:29;5.60;99.90
54461;DHT22;69977;49.414;11.010;2024-03-25T00:51:55;5.60;99.90
54461;DHT22;69977;49.414;11.010;2024-03-25T00:54:21;5.60;99.90
54461;DHT22;69977;49.414;11.010;2024-03-25T00:56:49;5.60;99.90
54461;DHT22;69977;49.414;11.010;2024-03-25T00:59:17;5.60;99.90
54461;DHT22;69977;49.414;11.010;2024-03-25T01:01:43;5.60;99.90
54461;DHT22;69977;49.414;11.010;2024-03-25T01:04:09;5.60;99.90
54461;DHT22;69977;49.414;11.010;2024-03-25T01:06:35;5.60;99.90
54461;DHT22;69977;49.414;11.010;2024-03-25T01:09:01;5.60;99.90
54461;DHT22;69977;49.414;11.010;2024-03-25T01:11:27;5.60;99.90
54461;DHT22;69977;49.414;11.010;2024-03-25T01:13:53;5.60;99.90
54461;DHT22;69977;49.414;11.010;2024-03-25T01:16:19;5.60;99.90
54461;DHT22;69977;49.414;11.010;2024-03-25T01:18:44;5.60;99.90
54461;DHT22;69977;49.414;11.010;2024-03-25T01:21:10;5.60;99.90
54461;DHT22;69977;49.414;11.010;2024-03-25T01:23:36;5.60;99.90
54461;DHT22;69977;49.414;11.010;2024-03-25T01:26:02;5.60;99.90
54461;DHT22;69977;49.414;11.010;2024-03-25T01:28:28;5.60;99.90
54461;DHT22;69977;49.414;11.010;2024-03-25T01:30:54;5.70;99.90
54461;DHT22;69977;49.414;11.010;2024-03-25T01:33:20;5.60;99.90
54461;DHT22;69977;49.414;11.010;2024-03-25T01:35:46;5.70;99.90
54461;DHT22;69977;49.414;11.010;2024-03-25T01:38:12;5.60;99.90
54461;DHT22;69977;49.414;11.010;2024-03-25T01:40:37;5.60;99.90
54461;DHT22;69977;49.414;11.010;2024-03-25T01:43:04;5.60;99.90
54461;DHT22;69977;49.414;11.010;2024-03-25T01:45:31;5.60;99.90
54461;DHT22;69977;49.414;11.010;2024-03-25T01:48:01;5.60;99.90
54461;DHT22;69977;49.414;11.010;2024-03-25T01:50:29;5.60;99.90
54461;DHT22;69977;49.414;11.010;2024-03-25T01:52:56;5.70;99.90
54461;DHT22;69977;49.414;11.010;2024-03-25T01:55:26;5.60;99.90
54461;DHT22;69977;49.414;11.010;2024-03-25T01:57:53;5.60;99.90
54461;DHT22;69977;49.414;11.010;2024-03-25T02:00:20;5.60;99.90
54461;DHT22;69977;49.414;11.010;2024-03-25T02:02:48;5.60;99.90
54461;DHT22;69977;49.414;11.010;2024-03-25T02:05:15;5.60;99.90
54461;DHT22;69977;49.414;11.010;2024-03-25T02:07:43;5.60;99.90
54461;DHT22;69977;49.414;11.010;2024-03-25T02:10:09;5.60;99.90
54461;DHT22;69977;49.414;11.010;2024-03-25T02:12:38;5.60;99.90
54461;DHT22;69977;49.414;11.010;2024-03-25T02:15:05;5.60;99.90
54461;DHT22;69977;49.414;11.010;2024-03-25T02:17:31;5.70;99.90
54461;DHT22;69977;49.414;11.010;2024-03-25T02:19:57;5.60;99.90
54461;DHT22;69977;49.414;11.010;2024-03-25T02:22:23;5.60;99.90
54461;DHT22;69977;49.414;11.010;2024-03-25T02:24:53;5.60;99.90
54461;DHT22;69977;49.414;11.010;2024-03-25T02:27:19;5.60;99.90
54461;DHT22;69977;49.414;11.010;2024-03-25T02:29:45;5.60;99.90
54461;DHT22;69977;49.414;11.010;2024-03-25T02:32:11;5.60;99.90
54461;DHT22;69977;49.414;11.010;2024-03-25T02:34:40;5.60;99.90
54461;DHT22;69977;49.414;11.010;2024-03-25T02:37:07;5.60;99.90
54461;DHT22;69977;49.414;11.010;2024-03-25T02:39:34;5.60;99.90
54461;DHT22;69977;49.414;11.010;2024-03-25T02:42:00;5.60;99.90
54461;DHT22;69977;49.414;11.010;2024-03-25T02:44:26;5.60;99.90
54461;DHT22;69977;49.414;11.010;2024-03-25T02:46:52;5.60;99.90
54461;DHT22;69977;49.414;11.010;2024-03-25T02:49:18;5.60;99.90
54461;DHT22;69977;49.414;11.010;2024-03-25T02:51:44;5.60;99.90
54461;DHT22;69977;49.414;11.010;2024-03-25T02:54:09;5.60;99.90
54461;DHT22;69977;49.414;11.010;2024-03-25T02:56:36;5.60;99.90
54461;DHT22;69977;49.414;11.010;2024-03-25T02:59:02;5.60;99.90
54461;DHT22;69977;49.414;11.010;2024-03-25T03:01:28;5.60;99.90
54461;DHT22;69977;49.414;11.010;2024-03-25T03:03:54;5.50;99.90
54461;DHT22;69977;49.414;11.010;2024-03-25T03:06:20;5.50;99.90
54461;DHT22;69977;49.414;11.010;2024-03-25T03:08:46;5.50;99.90
54461;DHT22;69977;49.414;11.010;2024-03-25T03:11:12;5.50;99.90
54461;DHT22;69977;49.414;11.010;2024-03-25T03:13:37;5.50;99.90
54461;DHT22;69977;49.414;11.010;2024-03-25T03:16:03;5.40;99.90
54461;DHT22;69977;49.414;11.010;2024-03-25T03:18:30;5.40;99.90
54461;DHT22;69977;49.414;11.010;2024-03-25T03:20:56;5.30;99.90
54461;DHT22;69977;49.414;11.010;2024-03-25T03:23:22;5.30;99.90
54461;DHT22;69977;49.414;11.010;2024-03-25T03:25:48;5.20;99.90
54461;DHT22;69977;49.414;11.010;2024-03-25T03:28:15;5.20;99.90
54461;DHT22;69977;49.414;11.010;2024-03-25T03:30:41;5.10;99.90
54461;DHT22;69977;49.414;11.010;2024-03-25T03:33:07;5.00;99.90
54461;DHT22;69977;49.414;11.010;2024-03-25T03:35:34;5.00;99.90
54461;DHT22;69977;49.414;11.010;2024-03-25T03:37:59;4.80;99.90
54461;DHT22;69977;49.414;11.010;2024-03-25T03:40:25;4.90;99.90
54461;DHT22;69977;49.414;11.010;2024-03-25T03:42:51;4.90;99.90
54461;DHT22;69977;49.414;11.010;2024-03-25T03:45:17;4.80;99.90
54461;DHT22;69977;49.414;11.010;2024-03-25T03:47:43;4.80;99.90
54461;DHT22;69977;49.414;11.010;2024-03-25T03:50:10;4.90;99.90
54461;DHT22;69977;49.414;11.010;2024-03-25T03:52:35;4.90;99.90
54461;DHT22;69977;49.414;11.010;2024-03-25T03:55:01;4.90;99.90
54461;DHT22;69977;49.414;11.010;2024-03-25T03:57:27;4.90;99.90
54461;DHT22;69977;49.414;11.010;2024-03-25T03:59:53;5.00;99.90
54461;DHT22;69977;49.414;11.010;2024-03-25T04:02:20;4.90;99.90
54461;DHT22;69977;49.414;11.010;2024-03-25T04:04:46;4.90;99.90
54461;DHT22;69977;49.414;11.010;2024-03-25T04:07:12;4.80;99.90
54461;DHT22;69977;49.414;11.010;2024-03-25T04:09:38;4.80;99.90
54461;DHT22;69977;49.414;11.010;2024-03-25T04:12:04;4.80;99.90
54461;DHT22;69977;49.414;11.010;2024-03-25T04:14:31;4.80;99.90
54461;DHT22;69977;49.414;11.010;2024-03-25T04:16:58;4.80;99.90
54461;DHT22;69977;49.414;11.010;2024-03-25T04:19:26;4.80;99.90
54461;DHT22;69977;49.414;11.010;2024-03-25T04:21:55;4.70;99.90
54461;DHT22;69977;49.414;11.010;2024-03-25T04:24:21;4.70;99.90
54461;DHT22;69977;49.414;11.010;2024-03-25T04:26:47;4.70;99.90
54461;DHT22;69977;49.414;11.010;2024-03-25T04:29:15;4.60;99.90
54461;DHT22;69977;49.414;11.010;2024-03-25T04:31:41;4.60;99.90
54461;DHT22;69977;49.414;11.010;2024-03-25T04:34:07;4.60;99.90
54461;DHT22;69977;49.414;11.010;2024-03-25T04:36:33;4.60;99.90
54461;DHT22;69977;49.414;11.010;2024-03-25T04:38:59;4.60;99.90
54461;DHT22;69977;49.414;11.010;2024-03-25T04:41:25;4.50;99.90
54461;DHT22;69977;49.414;11.010;2024-03-25T04:43:51;4.50;99.90
54461;DHT22;69977;49.414;11.010;2024-03-25T04:46:17;4.50;99.90
54461;DHT22;69977;49.414;11.010;2024-03-25T04:48:43;4.60;99.90
54461;DHT22;69977;49.414;11.010;2024-03-25T04:51:09;4.60;99.90
54461;DHT22;69977;49.414;11.010;2024-03-25T04:53:35;4.60;99.90
54461;DHT22;69977;49.414;11.010;2024-03-25T04:56:01;4.60;99.90
54461;DHT22;69977;49.414;11.010;2024-03-25T04:58:27;4.70;99.90
54461;DHT22;69977;49.414;11.010;2024-03-25T05:00:53;4.60;99.90
54461;DHT22;69977;49.414;11.010;2024-03-25T05:03:19;4.60;99.90
54461;DHT22;69977;49.414;11.010;2024-03-25T05:05:45;4.60;99.90
54461;DHT22;69977;49.414;11.010;2024-03-25T05:08:11;4.60;99.90
54461;DHT22;69977;49.414;11.010;2024-03-25T05:10:36;4.60;99.90
54461;DHT22;69977;49.414;11.010;2024-03-25T05:13:02;4.60;99.90
54461;DHT22;69977;49.414;11.010;2024-03-25T05:15:28;4.50;99.90
54461;DHT22;69977;49.414;11.010;2024-03-25T05:17:54;4.50;99.90
54461;DHT22;69977;49.414;11.010;2024-03-25T05:20:20;4.40;99.90
54461;DHT22;69977;49.414;11.010;2024-03-25T05:22:47;4.40;99.90
54461;DHT22;69977;49.414;11.010;2024-03-25T05:25:13;4.30;99.90
54461;DHT22;69977;49.414;11.010;2024-03-25T05:27:39;4.30;99.90
54461;DHT22;69977;49.414;11.010;2024-03-25T05:30:05;4.30;99.90
54461;DHT22;69977;49.414;11.010;2024-03-25T05:32:31;4.30;99.90
54461;DHT22;69977;49.414;11.010;2024-03-25T05:34:57;4.20;99.90
54461;DHT22;69977;49.414;11.010;2024-03-25T05:37:23;4.20;99.90
54461;DHT22;69977;49.414;11.010;2024-03-25T05:39:49;4.20;99.90
54461;DHT22;69977;49.414;11.010;2024-03-25T05:42:15;4.10;99.90
54461;DHT22;69977;49.414;11.010;2024-03-25T05:44:41;4.00;99.90
54461;DHT22;69977;49.414;11.010;2024-03-25T05:47:07;4.00;99.90
54461;DHT22;69977;49.414;11.010;2024-03-25T05:49:32;4.00;99.90
54461;DHT22;69977;49.414;11.010;2024-03-25T05:51:58;4.10;99.90
54461;DHT22;69977;49.414;11.010;2024-03-25T05:54:24;4.10;99.90
54461;DHT22;69977;49.414;11.010;2024-03-25T05:56:50;4.10;99.90
54461;DHT22;69977;49.414;11.010;2024-03-25T05:59:16;4.10;99.90
54461;DHT22;69977;49.414;11.010;2024-03-25T06:01:41;4.10;99.90
54461;DHT22;69977;49.414;11.010;2024-03-25T06:04:07;4.00;99.90
54461;DHT22;69977;49.414;11.010;2024-03-25T06:06:33;4.00;99.90
54461;DHT22;69977;49.414;11.010;2024-03-25T06:08:59;4.10;99.90
54461;DHT22;69977;49.414;11.010;2024-03-25T06:11:25;4.10;99.90
54461;DHT22;69977;49.414;11.010;2024-03-25T06:13:50;4.10;99.90
54461;DHT22;69977;49.414;11.010;2024-03-25T06:16:17;4.20;99.90
54461;DHT22;69977;49.414;11.010;2024-03-25T06:18:43;4.20;99.90
54461;DHT22;69977;49.414;11.010;2024-03-25T06:21:09;4.20;99.90
54461;DHT22;69977;49.414;11.010;2024-03-25T06:23:35;4.30;99.90
54461;DHT22;69977;49.414;11.010;2024-03-25T06:26:01;4.40;99.90
54461;DHT22;69977;49.414;11.010;2024-03-25T06:28:26;4.40;99.90
54461;DHT22;69977;49.414;11.010;2024-03-25T06:30:52;4.50;99.90
54461;DHT22;69977;49.414;11.010;2024-03-25T06:33:37;4.50;99.90
54461;DHT22;69977;49.414;11.010;2024-03-25T06:36:22;4.50;99.90
54461;DHT22;69977;49.414;11.010;2024-03-25T06:38:48;4.60;99.90
54461;DHT22;69977;49.414;11.010;2024-03-25T06:41:14;4.60;99.90
54461;DHT22;69977;49.414;11.010;2024-03-25T06:43:40;4.70;99.90
54461;DHT22;69977;49.414;11.010;2024-03-25T06:46:06;4.80;99.90
54461;DHT22;69977;49.414;11.010;2024-03-25T06:48:33;4.80;99.90
54461;DHT22;69977;49.414;11.010;2024-03-25T06:51:01;4.90;99.90
54461;DHT22;69977;49.414;11.010;2024-03-25T06:53:28;4.90;99.90
54461;DHT22;69977;49.414;11.010;2024-03-25T06:55:56;5.00;99.90
54461;DHT22;69977;49.414;11.010;2024-03-25T06:58:24;5.00;99.90
54461;DHT22;69977;49.414;11.010;2024-03-25T07:00:50;5.00;99.90
54461;DHT22;69977;49.414;11.010;2024-03-25T07:03:20;5.10;99.90
54461;DHT22;69977;49.414;11.010;2024-03-25T07:05:47;5.10;99.90
54461;DHT22;69977;49.414;11.010;2024-03-25T07:08:14;5.10;99.90
54461;DHT22;69977;49.414;11.010;2024-03-25T07:10:44;5.20;99.90
54461;DHT22;69977;49.414;11.010;2024-03-25T07:13:10;5.20;99.90
54461;DHT22;69977;49.414;11.010;2024-03-25T07:15:36;5.30;99.90
54461;DHT22;69977;49.414;11.010;2024-03-25T07:18:03;5.30;99.90
54461;DHT22;69977;49.414;11.010;2024-03-25T07:20:29;5.40;99.90
54461;DHT22;69977;49.414;11.010;2024-03-25T07:22:56;5.40;99.90
54461;DHT22;69977;49.414;11.010;2024-03-25T07:25:25;5.50;99.90
54461;DHT22;69977;49.414;11.010;2024-03-25T07:27:51;5.60;99.90
54461;DHT22;69977;49.414;11.010;2024-03-25T07:30:18;5.60;99.90
54461;DHT22;69977;49.414;11.010;2024-03-25T07:32:44;5.80;99.90
54461;DHT22;69977;49.414;11.010;2024-03-25T07:35:13;5.80;99.90
54461;DHT22;69977;49.414;11.010;2024-03-25T07:37:43;5.80;99.90
54461;DHT22;69977;49.414;11.010;2024-03-25T07:40:09;5.90;99.90
54461;DHT22;69977;49.414;11.010;2024-03-25T07:42:37;6.00;99.90
54461;DHT22;69977;49.414;11.010;2024-03-25T07:45:04;6.10;99.90
54461;DHT22;69977;49.414;11.010;2024-03-25T07:47:32;6.20;99.90
54461;DHT22;69977;49.414;11.010;2024-03-25T07:49:58;6.20;99.90
54461;DHT22;69977;49.414;11.010;2024-03-25T07:52:27;6.20;99.90
54461;DHT22;69977;49.414;11.010;2024-03-25T07:54:53;6.30;99.90
54461;DHT22;69977;49.414;11.010;2024-03-25T07:57:20;6.30;99.90
54461;DHT22;69977;49.414;11.010;2024-03-25T07:59:46;6.20;99.90
54461;DHT22;69977;49.414;11.010;2024-03-25T08:02:12;6.30;99.90
54461;DHT22;69977;49.414;11.010;2024-03-25T08:04:38;6.30;99.90
54461;DHT22;69977;49.414;11.010;2024-03-25T08:07:04;6.20;99.90
54461;DHT22;69977;49.414;11.010;2024-03-25T08:09:30;6.20;99.90
54461;DHT22;69977;49.414;11.010;2024-03-25T08:11:56;6.20;99.90
54461;DHT22;69977;49.414;11.010;2024-03-25T08:14:22;6.20;99.90
54461;DHT22;69977;49.414;11.010;2024-03-25T08:16:48;6.40;99.90
54461;DHT22;69977;49.414;11.010;2024-03-25T08:19:14;6.50;99.90
54461;DHT22;69977;49.414;11.010;2024-03-25T08:21:40;6.60;99.90
54461;DHT22;69977;49.414;11.010;2024-03-25T08:24:06;6.70;99.90
54461;DHT22;69977;49.414;11.010;2024-03-25T08:26:32;6.70;99.90
54461;DHT22;69977;49.414;11.010;2024-03-25T08:28:58;6.80;99.90
54461;DHT22;69977;49.414;11.010;2024-03-25T08:31:24;7.00;99.90
54461;DHT22;69977;49.414;11.010;2024-03-25T08:33:50;7.30;99.90
54461;DHT22;69977;49.414;11.010;2024-03-25T08:36:16;7.40;99.90
54461;DHT22;69977;49.414;11.010;2024-03-25T08:38:44;7.40;99.90
54461;DHT22;69977;49.414;11.010;2024-03-25T08:41:11;7.50;99.90
54461;DHT22;69977;49.414;11.010;2024-03-25T08:43:37;7.60;99.90
54461;DHT22;69977;49.414;11.010;2024-03-25T08:46:02;7.60;99.90
54461;DHT22;69977;49.414;11.010;2024-03-25T08:48:29;7.70;99.90
54461;DHT22;69977;49.414;11.010;2024-03-25T08:50:55;7.80;99.90
54461;DHT22;69977;49.414;11.010;2024-03-25T08:53:21;7.80;99.90
54461;DHT22;69977;49.414;11.010;2024-03-25T08:55:48;8.00;99.90
54461;DHT22;69977;49.414;11.010;2024-03-25T08:58:15;8.00;99.90
54461;DHT22;69977;49.414;11.010;2024-03-25T09:00:41;7.80;99.90
54461;DHT22;69977;49.414;11.010;2024-03-25T09:03:08;8.00;99.90
54461;DHT22;69977;49.414;11.010;2024-03-25T09:05:34;8.10;99.90
54461;DHT22;69977;49.414;11.010;2024-03-25T09:08:01;8.40;99.90
54461;DHT22;69977;49.414;11.010;2024-03-25T09:10:27;8.40;99.90
54461;DHT22;69977;49.414;11.010;2024-03-25T09:13:13;8.30;99.90
54461;DHT22;69977;49.414;11.010;2024-03-25T09:15:38;8.20;99.90
54461;DHT22;69977;49.414;11.010;2024-03-25T09:18:04;8.30;99.90
54461;DHT22;69977;49.414;11.010;2024-03-25T09:20:30;8.30;99.90
54461;DHT22;69977;49.414;11.010;2024-03-25T09:22:56;8.40;99.90
54461;DHT22;69977;49.414;11.010;2024-03-25T09:25:23;8.30;99.90
54461;DHT22;69977;49.414;11.010;2024-03-25T09:27:50;8.00;99.90
54461;DHT22;69977;49.414;11.010;2024-03-25T09:30:16;8.00;99.90
54461;DHT22;69977;49.414;11.010;2024-03-25T09:32:43;8.20;99.90
54461;DHT22;69977;49.414;11.010;2024-03-25T09:35:10;8.00;99.90
54461;DHT22;69977;49.414;11.010;2024-03-25T09:37:36;8.00;99.90
54461;DHT22;69977;49.414;11.010;2024-03-25T09:40:03;8.10;99.90
54461;DHT22;69977;49.414;11.010;2024-03-25T09:42:48;8.50;99.90
54461;DHT22;69977;49.414;11.010;2024-03-25T09:45:18;8.50;99.90
54461;DHT22;69977;49.414;11.010;2024-03-25T09:47:48;8.30;99.90
54461;DHT22;69977;49.414;11.010;2024-03-25T09:50:14;8.20;99.90
54461;DHT22;69977;49.414;11.010;2024-03-25T09:52:49;8.20;99.90
54461;DHT22;69977;49.414;11.010;2024-03-25T09:55:15;8.30;99.90
54461;DHT22;69977;49.414;11.010;2024-03-25T09:57:45;8.40;99.90
54461;DHT22;69977;49.414;11.010;2024-03-25T10:00:12;8.30;99.90
54461;DHT22;69977;49.414;11.010;2024-03-25T10:02:44;8.20;99.90
54461;DHT22;69977;49.414;11.010;2024-03-25T10:05:10;8.10;99.90
54461;DHT22;69977;49.414;11.010;2024-03-25T10:07:36;8.10;99.90
54461;DHT22;69977;49.414;11.010;2024-03-25T10:10:06;8.20;99.90
54461;DHT22;69977;49.414;11.010;2024-03-25T10:12:32;8.30;99.90
54461;DHT22;69977;49.414;11.010;2024-03-25T10:14:58;8.30;99.90
54461;DHT22;69977;49.414;11.010;2024-03-25T10:17:25;8.40;99.90
54461;DHT22;69977;49.414;11.010;2024-03-25T10:19:54;8.40;99.90
54461;DHT22;69977;49.414;11.010;2024-03-25T10:22:19;8.50;99.90
54461;DHT22;69977;49.414;11.010;2024-03-25T10:24:47;8.50;99.90
54461;DHT22;69977;49.414;11.010;2024-03-25T10:27:23;8.60;99.90
54461;DHT22;69977;49.414;11.010;2024-03-25T10:29:53;9.10;99.90
54461;DHT22;69977;49.414;11.010;2024-03-25T10:32:21;9.70;99.90
54461;DHT22;69977;49.414;11.010;2024-03-25T10:34:50;9.90;99.90
54461;DHT22;69977;49.414;11.010;2024-03-25T10:37:18;10.00;99.90
54461;DHT22;69977;49.414;11.010;2024-03-25T10:39:50;10.10;99.90
54461;DHT22;69977;49.414;11.010;2024-03-25T10:42:19;10.10;99.90
54461;DHT22;69977;49.414;11.010;2024-03-25T10:44:45;9.50;99.90
54461;DHT22;69977;49.414;11.010;2024-03-25T10:47:17;9.80;99.90
54461;DHT22;69977;49.414;11.010;2024-03-25T10:49:56;10.20;99.90
54461;DHT22;69977;49.414;11.010;2024-03-25T10:52:27;10.50;99.90
54461;DHT22;69977;49.414;11.010;2024-03-25T10:54:55;10.20;99.90
54461;DHT22;69977;49.414;11.010;2024-03-25T10:57:22;10.10;99.90
54461;DHT22;69977;49.414;11.010;2024-03-25T10:59:49;10.20;99.90
54461;DHT22;69977;49.414;11.010;2024-03-25T11:02:15;10.30;99.90
54461;DHT22;69977;49.414;11.010;2024-03-25T11:04:44;10.20;99.90
54461;DHT22;69977;49.414;11.010;2024-03-25T11:07:14;10.30;99.90
54461;DHT22;69977;49.414;11.010;2024-03-25T11:09:41;10.20;99.90
54461;DHT22;69977;49.414;11.010;2024-03-25T11:12:10;10.30;99.90
54461;DHT22;69977;49.414;11.010;2024-03-25T11:14:37;10.50;99.90
54461;DHT22;69977;49.414;11.010;2024-03-25T11:17:03;10.60;99.90
54461;DHT22;69977;49.414;11.010;2024-03-25T11:19:39;10.60;99.90
54461;DHT22;69977;49.414;11.010;2024-03-25T11:22:09;10.40;99.90
54461;DHT22;69977;49.414;11.010;2024-03-25T11:24:36;10.70;99.90
54461;DHT22;69977;49.414;11.010;2024-03-25T11:27:06;10.70;99.90
54461;DHT22;69977;49.414;11.010;2024-03-25T11:29:33;10.60;99.90
54461;DHT22;69977;49.414;11.010;2024-03-25T11:32:06;10.40;99.90
54461;DHT22;69977;49.414;11.010;2024-03-25T11:34:35;10.30;99.90
54461;DHT22;69977;49.414;11.010;2024-03-25T11:37:00;10.50;99.90
54461;DHT22;69977;49.414;11.010;2024-03-25T11:39:27;10.30;99.90
54461;DHT22;69977;49.414;11.010;2024-03-25T11:41:54;10.30;99.90
54461;DHT22;69977;49.414;11.010;2024-03-25T11:44:20;10.20;99.90
54461;DHT22;69977;49.414;11.010;2024-03-25T11:46:50;10.40;99.90
54461;DHT22;69977;49.414;11.010;2024-03-25T11:49:16;10.50;99.90
54461;DHT22;69977;49.414;11.010;2024-03-25T11:51:45;10.50;99.90
54461;DHT22;69977;49.414;11.010;2024-03-25T11:54:12;10.70;99.90
54461;DHT22;69977;49.414;11.010;2024-03-25T11:56:40;10.70;99.90
54461;DHT22;69977;49.414;11.010;2024-03-25T11:59:06;10.80;99.90
54461;DHT22;69977;49.414;11.010;2024-03-25T12:01:32;10.90;99.90
54461;DHT22;69977;49.414;11.010;2024-03-25T12:04:16;11.10;99.90
54461;DHT22;69977;49.414;11.010;2024-03-25T12:06:42;11.10;99.90
54461;DHT22;69977;49.414;11.010;2024-03-25T12:09:08;10.90;99.90
54461;DHT22;69977;49.414;11.010;2024-03-25T12:11:53;11.40;99.90
54461;DHT22;69977;49.414;11.010;2024-03-25T12:14:21;11.20;99.90
54461;DHT22;69977;49.414;11.010;2024-03-25T12:16:47;10.90;99.90
54461;DHT22;69977;49.414;11.010;2024-03-25T12:19:16;11.30;99.90
54461;DHT22;69977;49.414;11.010;2024-03-25T12:21:44;11.40;99.90
54461;DHT22;69977;49.414;11.010;2024-03-25T12:24:11;11.60;99.90
54461;DHT22;69977;49.414;11.010;2024-03-25T12:26:36;11.10;99.90
54461;DHT22;69977;49.414;11.010;2024-03-25T12:29:03;11.40;99.90
54461;DHT22;69977;49.414;11.010;2024-03-25T12:31:30;11.70;99.90
54461;DHT22;69977;49.414;11.010;2024-03-25T12:33:56;11.60;99.90
54461;DHT22;69977;49.414;11.010;2024-03-25T12:36:22;11.90;99.90
54461;DHT22;69977;49.414;11.010;2024-03-25T12:38:55;11.90;99.90
54461;DHT22;69977;49.414;11.010;2024-03-25T12:41:24;12.10;99.90
54461;DHT22;69977;49.414;11.010;2024-03-25T12:43:51;11.90;99.90
54461;DHT22;69977;49.414;11.010;2024-03-25T12:46:17;11.60;99.90
54461;DHT22;69977;49.414;11.010;2024-03-25T12:48:43;11.30;99.90
54461;DHT22;69977;49.414;11.010;2024-03-25T12:51:13;11.90;99.90
54461;DHT22;69977;49.414;11.010;2024-03-25T12:53:39;12.20;99.90
54461;DHT22;69977;49.414;11.010;2024-03-25T12:56:06;12.20;99.90
54461;DHT22;69977;49.414;11.010;2024-03-25T12:58:32;12.80;99.90
54461;DHT22;69977;49.414;11.010;2024-03-25T13:00:57;12.90;99.90
54461;DHT22;69977;49.414;11.010;2024-03-25T13:03:24;12.30;98.30
54461;DHT22;69977;49.414;11.010;2024-03-25T13:05:49;12.50;97.20
54461;DHT22;69977;49.414;11.010;2024-03-25T13:08:15;12.80;99.40
54461;DHT22;69977;49.414;11.010;2024-03-25T13:10:43;13.30;98.40
54461;DHT22;69977;49.414;11.010;2024-03-25T13:13:09;13.30;97.80
54461;DHT22;69977;49.414;11.010;2024-03-25T13:15:35;13.10;96.70
54461;DHT22;69977;49.414;11.010;2024-03-25T13:18:01;13.30;99.20
54461;DHT22;69977;49.414;11.010;2024-03-25T13:20:27;13.40;98.30
54461;DHT22;69977;49.414;11.010;2024-03-25T13:22:54;13.50;99.10
54461;DHT22;69977;49.414;11.010;2024-03-25T13:25:27;13.20;98.80
54461;DHT22;69977;49.414;11.010;2024-03-25T13:27:53;13.10;99.60
54461;DHT22;69977;49.414;11.010;2024-03-25T13:30:19;13.20;96.20
54461;DHT22;69977;49.414;11.010;2024-03-25T13:32:45;12.70;95.50
54461;DHT22;69977;49.414;11.010;2024-03-25T13:35:11;12.50;97.60
54461;DHT22;69977;49.414;11.010;2024-03-25T13:37:37;12.70;96.30
54461;DHT22;69977;49.414;11.010;2024-03-25T13:40:03;13.30;99.90
54461;DHT22;69977;49.414;11.010;2024-03-25T13:42:31;13.50;96.50
54461;DHT22;69977;49.414;11.010;2024-03-25T13:44:57;13.60;94.80
54461;DHT22;69977;49.414;11.010;2024-03-25T13:47:23;13.70;97.60
54461;DHT22;69977;49.414;11.010;2024-03-25T13:49:49;13.80;96.30
54461;DHT22;69977;49.414;11.010;2024-03-25T13:52:14;14.10;96.40
54461;DHT22;69977;49.414;11.010;2024-03-25T13:54:40;14.10;96.20
54461;DHT22;69977;49.414;11.010;2024-03-25T13:57:06;14.00;94.10
54461;DHT22;69977;49.414;11.010;2024-03-25T13:59:32;13.50;95.30
54461;DHT22;69977;49.414;11.010;2024-03-25T14:01:58;13.90;96.00
54461;DHT22;69977;49.414;11.010;2024-03-25T14:04:23;13.80;96.70
54461;DHT22;69977;49.414;11.010;2024-03-25T14:06:49;13.90;94.80
54461;DHT22;69977;49.414;11.010;2024-03-25T14:09:25;13.60;93.30
54461;DHT22;69977;49.414;11.010;2024-03-25T14:11:51;13.30;96.40
54461;DHT22;69977;49.414;11.010;2024-03-25T14:14:17;13.20;95.40
54461;DHT22;69977;49.414;11.010;2024-03-25T14:16:43;13.30;95.10
54461;DHT22;69977;49.414;11.010;2024-03-25T14:19:09;13.10;95.80
54461;DHT22;69977;49.414;11.010;2024-03-25T14:21:35;13.00;96.00
54461;DHT22;69977;49.414;11.010;2024-03-25T14:24:01;13.30;97.80
54461;DHT22;69977;49.414;11.010;2024-03-25T14:26:27;13.40;97.10
54461;DHT22;69977;49.414;11.010;2024-03-25T14:28:53;13.80;95.10
54461;DHT22;69977;49.414;11.010;2024-03-25T14:31:18;13.80;96.70
54461;DHT22;69977;49.414;11.010;2024-03-25T14:33:44;13.90;96.60
54461;DHT22;69977;49.414;11.010;2024-03-25T14:36:10;14.20;95.10
54461;DHT22;69977;49.414;11.010;2024-03-25T14:38:36;14.10;97.00
54461;DHT22;69977;49.414;11.010;2024-03-25T14:41:05;14.00;97.70
54461;DHT22;69977;49.414;11.010;2024-03-25T14:43:32;13.80;94.60
54461;DHT22;69977;49.414;11.010;2024-03-25T14:45:58;13.80;94.40
54461;DHT22;69977;49.414;11.010;2024-03-25T14:48:23;13.70;94.90
54461;DHT22;69977;49.414;11.010;2024-03-25T14:50:49;14.00;93.80
54461;DHT22;69977;49.414;11.010;2024-03-25T14:53:15;14.30;95.60
54461;DHT22;69977;49.414;11.010;2024-03-25T14:55:42;14.20;92.00
54461;DHT22;69977;49.414;11.010;2024-03-25T14:58:08;13.80;92.30
54461;DHT22;69977;49.414;11.010;2024-03-25T15:00:33;14.10;93.60
54461;DHT22;69977;49.414;11.010;2024-03-25T15:02:59;14.00;93.20
54461;DHT22;69977;49.414;11.010;2024-03-25T15:05:26;13.70;93.20
54461;DHT22;69977;49.414;11.010;2024-03-25T15:07:52;13.80;92.20
54461;DHT22;69977;49.414;11.010;2024-03-25T15:10:17;13.30;91.60
54461;DHT22;69977;49.414;11.010;2024-03-25T15:12:46;14.00;95.30
54461;DHT22;69977;49.414;11.010;2024-03-25T15:15:12;13.90;92.50
54461;DHT22;69977;49.414;11.010;2024-03-25T15:17:37;14.60;92.70
54461;DHT22;69977;49.414;11.010;2024-03-25T15:20:04;14.80;91.30
54461;DHT22;69977;49.414;11.010;2024-03-25T15:22:31;14.80;92.30
54461;DHT22;69977;49.414;11.010;2024-03-25T15:24:57;14.50;89.40